sensor_id;sensor_type;location;lat;lon;timestamp;temperature;humidity
38008;DHT22;75335;50.812;12.376;2024-01-15T00:00:50;0.70;77.10
38008;DHT22;75335;50.812;12.376;2024-01-15T00:03:18;0.80;77.10
38008;DHT22;75335;50.812;12.376;2024-01-15T00:05:45;0.80;76.90
38008;DHT22;75335;50.812;12.376;2024-01-15T00:08:14;0.70;77.10
38008;DHT22;75335;50.812;12.376;2024-01-15T00:10:41;0.70;76.90
38008;DHT22;75335;50.812;12.376;2024-01-15T00:13:11;0.70;76.90
38008;DHT22;75335;50.812;12.376;2024-01-15T00:15:38;0.70;76.80
38008;DHT22;75335;50.812;12.376;2024-01-15T00:18:07;0.70;76.50
38008;DHT22;75335;50.812;12.376;2024-01-15T00:20:34;0.60;77.00
38008;DHT22;75335;50.812;12.376;2024-01-15T00:23:03;0.60;77.10
38008;DHT22;75335;50.812;12.376;2024-01-15T00:25:31;0.70;76.60
38008;DHT22;75335;50.812;12.376;2024-01-15T00:27:58;0.60;76.90
38008;DHT22;75335;50.812;12.376;2024-01-15T00:30:28;0.70;76.70
38008;DHT22;75335;50.812;12.376;2024-01-15T00:32:56;0.60;76.60
38008;DHT22;75335;50.812;12.376;2024-01-15T00:35:24;0.70;76.80
38008;DHT22;75335;50.812;12.376;2024-01-15T00:37:52;0.60;76.80
38008;DHT22;75335;50.812;12.376;2024-01-15T00:40:20;0.50;77.10
38008;DHT22;75335;50.812;12.376;2024-01-15T00:42:48;0.60;77.00
38008;DHT22;75335;50.812;12.376;2024-01-15T00:45:16;0.70;77.00
38008;DHT22;75335;50.812;12.376;2024-01-15T00:47:46;0.60;77.50
38008;DHT22;75335;50.812;12.376;2024-01-15T00:50:14;0.50;79.30
38008;DHT22;75335;50.812;12.376;2024-01-15T00:52:43;0.40;80.00
38008;DHT22;75335;50.812;12.376;2024-01-15T00:55:11;0.40;79.00
38008;DHT22;75335;50.812;12.376;2024-01-15T00:57:39;0.30;77.80
38008;DHT22;75335;50.812;12.376;2024-01-15T01:00:07;0.40;77.70
38008;DHT22;75335;50.812;12.376;2024-01-15T01:02:37;0.40;77.20
38008;DHT22;75335;50.812;12.376;2024-01-15T01:05:07;0.40;76.70
38008;DHT22;75335;50.812;12.376;2024-01-15T01:07:35;0.40;76.20
38008;DHT22;75335;50.812;12.376;2024-01-15T01:10:03;0.40;76.00
38008;DHT22;75335;50.812;12.376;2024-01-15T01:12:32;0.40;76.40
38008;DHT22;75335;50.812;12.376;2024-01-15T01:15:00;0.30;76.90
38008;DHT22;75335;50.812;12.376;2024-01-15T01:17:29;0.30;77.60
38008;DHT22;75335;50.812;12.376;2024-01-15T01:19:57;0.30;76.80
38008;DHT22;75335;50.812;12.376;2024-01-15T01:22:26;0.20;77.10
38008;DHT22;75335;50.812;12.376;2024-01-15T01:24:54;0.20;77.10
38008;DHT22;75335;50.812;12.376;2024-01-15T01:27:22;0.30;77.00
38008;DHT22;75335;50.812;12.376;2024-01-15T01:29:50;0.30;76.70
38008;DHT22;75335;50.812;12.376;2024-01-15T01:32:19;0.30;76.60
38008;DHT22;75335;50.812;12.376;2024-01-15T01:34:47;0.20;76.60
38008;DHT22;75335;50.812;12.376;2024-01-15T01:37:15;0.20;76.20
38008;DHT22;75335;50.812;12.376;2024-01-15T01:39:44;0.20;76.40
38008;DHT22;75335;50.812;12.376;2024-01-15T01:42:12;0.20;76.60
38008;DHT22;75335;50.812;12.376;2024-01-15T01:44:42;0.10;76.60
38008;DHT22;75335;50.812;12.376;2024-01-15T01:47:10;0.10;76.50
38008;DHT22;75335;50.812;12.376;2024-01-15T01:49:38;0.10;76.50
38008;DHT22;75335;50.812;12.376;2024-01-15T01:52:07;0.10;76.50
38008;DHT22;75335;50.812;12.376;2024-01-15T01:54:35;0.10;75.90
38008;DHT22;75335;50.812;12.376;2024-01-15T01:57:07;0.20;76.40
38008;DHT22;75335;50.812;12.376;2024-01-15T01:59:36;0.10;76.20
38008;DHT22;75335;50.812;12.376;2024-01-15T02:02:05;0.10;75.80
38008;DHT22;75335;50.812;12.376;2024-01-15T02:04:33;0.10;76.00
38008;DHT22;75335;50.812;12.376;2024-01-15T02:07:02;0.10;76.20
38008;DHT22;75335;50.812;12.376;2024-01-15T02:09:31;0.10;76.10
38008;DHT22;75335;50.812;12.376;2024-01-15T02:11:59;0.00;76.10
38008;DHT22;75335;50.812;12.376;2024-01-15T02:14:29;0.00;76.30
38008;DHT22;75335;50.812;12.376;2024-01-15T02:16:57;0.10;76.50
38008;DHT22;75335;50.812;12.376;2024-01-15T02:19:25;0.10;76.50
38008;DHT22;75335;50.812;12.376;2024-01-15T02:21:53;0.00;76.40
38008;DHT22;75335;50.812;12.376;2024-01-15T02:24:22;0.00;76.90
38008;DHT22;75335;50.812;12.376;2024-01-15T02:26:50;0.00;77.00
38008;DHT22;75335;50.812;12.376;2024-01-15T02:29:18;0.00;76.80
38008;DHT22;75335;50.812;12.376;2024-01-15T02:31:46;0.10;76.60
38008;DHT22;75335;50.812;12.376;2024-01-15T02:34:14;0.00;76.90
38008;DHT22;75335;50.812;12.376;2024-01-15T02:36:42;0.00;77.30
38008;DHT22;75335;50.812;12.376;2024-01-15T02:39:10;-0.10;77.70
38008;DHT22;75335;50.812;12.376;2024-01-15T02:41:39;-0.10;77.10
38008;DHT22;75335;50.812;12.376;2024-01-15T02:44:07;-0.20;77.30
38008;DHT22;75335;50.812;12.376;2024-01-15T02:46:35;-0.10;77.30
38008;DHT22;75335;50.812;12.376;2024-01-15T02:49:03;-0.20;77.00
38008;DHT22;75335;50.812;12.376;2024-01-15T02:51:31;-0.20;77.20
38008;DHT22;75335;50.812;12.376;2024-01-15T02:53:59;-0.20;77.20
38008;DHT22;75335;50.812;12.376;2024-01-15T02:56:27;-0.30;78.10
38008;DHT22;75335;50.812;12.376;2024-01-15T02:58:56;-0.30;80.10
38008;DHT22;75335;50.812;12.376;2024-01-15T03:01:24;-0.30;83.40
38008;DHT22;75335;50.812;12.376;2024-01-15T03:03:52;-0.40;82.70
38008;DHT22;75335;50.812;12.376;2024-01-15T03:06:26;-0.30;80.80
38008;DHT22;75335;50.812;12.376;2024-01-15T03:08:54;-0.30;79.40
38008;DHT22;75335;50.812;12.376;2024-01-15T03:11:22;-0.40;79.10
38008;DHT22;75335;50.812;12.376;2024-01-15T03:13:50;-0.30;77.80
38008;DHT22;75335;50.812;12.376;2024-01-15T03:16:19;-0.30;77.50
38008;DHT22;75335;50.812;12.376;2024-01-15T03:18:49;-0.30;77.40
38008;DHT22;75335;50.812;12.376;2024-01-15T03:21:17;-0.30;76.60
38008;DHT22;75335;50.812;12.376;2024-01-15T03:23:44;-0.20;76.60
38008;DHT22;75335;50.812;12.376;2024-01-15T03:26:12;-0.40;76.60
38008;DHT22;75335;50.812;12.376;2024-01-15T03:28:40;-0.30;77.20
38008;DHT22;75335;50.812;12.376;2024-01-15T03:31:08;-0.30;77.00
38008;DHT22;75335;50.812;12.376;2024-01-15T03:33:39;-0.40;76.90
38008;DHT22;75335;50.812;12.376;2024-01-15T03:36:08;-0.30;77.20
38008;DHT22;75335;50.812;12.376;2024-01-15T03:38:40;-0.30;77.00
38008;DHT22;75335;50.812;12.376;2024-01-15T03:41:08;-0.30;76.50
38008;DHT22;75335;50.812;12.376;2024-01-15T03:43:36;-0.40;76.20
38008;DHT22;75335;50.812;12.376;2024-01-15T03:46:04;-0.30;76.60
38008;DHT22;75335;50.812;12.376;2024-01-15T03:48:32;-0.30;76.90
38008;DHT22;75335;50.812;12.376;2024-01-15T03:51:02;-0.30;76.30
38008;DHT22;75335;50.812;12.376;2024-01-15T03:53:30;-0.40;76.80
38008;DHT22;75335;50.812;12.376;2024-01-15T03:55:58;-0.30;76.40
38008;DHT22;75335;50.812;12.376;2024-01-15T03:58:37;-0.30;76.40
38008;DHT22;75335;50.812;12.376;2024-01-15T04:01:08;-0.30;76.60
38008;DHT22;75335;50.812;12.376;2024-01-15T04:03:36;-0.40;76.60
38008;DHT22;75335;50.812;12.376;2024-01-15T04:06:06;-0.40;77.10
38008;DHT22;75335;50.812;12.376;2024-01-15T04:08:34;-0.40;76.70
38008;DHT22;75335;50.812;12.376;2024-01-15T04:11:02;-0.50;77.30
38008;DHT22;75335;50.812;12.376;2024-01-15T04:13:35;-0.40;76.60
38008;DHT22;75335;50.812;12.376;2024-01-15T04:16:03;-0.40;76.50
38008;DHT22;75335;50.812;12.376;2024-01-15T04:18:31;-0.40;77.00
38008;DHT22;75335;50.812;12.376;2024-01-15T04:20:59;-0.40;76.70
38008;DHT22;75335;50.812;12.376;2024-01-15T04:23:29;-0.50;76.90
38008;DHT22;75335;50.812;12.376;2024-01-15T04:25:59;-0.40;76.80
38008;DHT22;75335;50.812;12.376;2024-01-15T04:28:27;-0.30;76.70
38008;DHT22;75335;50.812;12.376;2024-01-15T04:30:55;-0.30;76.40
38008;DHT22;75335;50.812;12.376;2024-01-15T04:33:23;-0.30;76.40
38008;DHT22;75335;50.812;12.376;2024-01-15T04:35:50;-0.40;76.40
38008;DHT22;75335;50.812;12.376;2024-01-15T04:38:18;-0.30;76.20
38008;DHT22;75335;50.812;12.376;2024-01-15T04:40:53;-0.30;76.40
38008;DHT22;75335;50.812;12.376;2024-01-15T04:43:21;-0.40;76.10
38008;DHT22;75335;50.812;12.376;2024-01-15T04:45:49;-0.30;76.40
38008;DHT22;75335;50.812;12.376;2024-01-15T04:48:17;-0.40;76.10
38008;DHT22;75335;50.812;12.376;2024-01-15T04:50:45;-0.30;75.60
38008;DHT22;75335;50.812;12.376;2024-01-15T04:53:24;-0.40;75.80
38008;DHT22;75335;50.812;12.376;2024-01-15T04:55:54;-0.40;75.60
38008;DHT22;75335;50.812;12.376;2024-01-15T04:58:22;-0.50;76.00
38008;DHT22;75335;50.812;12.376;2024-01-15T05:00:51;-0.50;76.10
38008;DHT22;75335;50.812;12.376;2024-01-15T05:03:20;-0.40;75.50
38008;DHT22;75335;50.812;12.376;2024-01-15T05:05:48;-0.50;75.40
38008;DHT22;75335;50.812;12.376;2024-01-15T05:08:21;-0.40;75.40
38008;DHT22;75335;50.812;12.376;2024-01-15T05:10:49;-0.40;75.50
38008;DHT22;75335;50.812;12.376;2024-01-15T05:13:18;-0.40;75.60
38008;DHT22;75335;50.812;12.376;2024-01-15T05:15:46;-0.40;75.30
38008;DHT22;75335;50.812;12.376;2024-01-15T05:18:17;-0.50;75.80
38008;DHT22;75335;50.812;12.376;2024-01-15T05:20:45;-0.50;76.20
38008;DHT22;75335;50.812;12.376;2024-01-15T05:23:13;-0.40;75.70
38008;DHT22;75335;50.812;12.376;2024-01-15T05:25:41;-0.50;76.10
38008;DHT22;75335;50.812;12.376;2024-01-15T05:28:09;-0.50;76.50
38008;DHT22;75335;50.812;12.376;2024-01-15T05:30:39;-0.60;76.50
38008;DHT22;75335;50.812;12.376;2024-01-15T05:33:07;-0.50;76.60
38008;DHT22;75335;50.812;12.376;2024-01-15T05:35:41;-0.50;76.60
38008;DHT22;75335;50.812;12.376;2024-01-15T05:38:09;-0.50;76.00
38008;DHT22;75335;50.812;12.376;2024-01-15T05:40:37;-0.50;76.40
38008;DHT22;75335;50.812;12.376;2024-01-15T05:43:05;-0.60;76.50
38008;DHT22;75335;50.812;12.376;2024-01-15T05:45:34;-0.60;76.60
38008;DHT22;75335;50.812;12.376;2024-01-15T05:48:04;-0.60;76.60
38008;DHT22;75335;50.812;12.376;2024-01-15T05:50:32;-0.60;76.60
38008;DHT22;75335;50.812;12.376;2024-01-15T05:53:01;-0.50;76.60
38008;DHT22;75335;50.812;12.376;2024-01-15T05:55:28;-0.50;76.30
38008;DHT22;75335;50.812;12.376;2024-01-15T05:57:56;-0.60;76.50
38008;DHT22;75335;50.812;12.376;2024-01-15T06:00:29;-0.60;76.80
38008;DHT22;75335;50.812;12.376;2024-01-15T06:02:59;-0.70;77.20
38008;DHT22;75335;50.812;12.376;2024-01-15T06:05:28;-0.80;77.40
38008;DHT22;75335;50.812;12.376;2024-01-15T06:07:56;-0.80;77.40
38008;DHT22;75335;50.812;12.376;2024-01-15T06:10:24;-0.70;77.10
38008;DHT22;75335;50.812;12.376;2024-01-15T06:12:51;-0.50;76.70
38008;DHT22;75335;50.812;12.376;2024-01-15T06:15:23;-0.60;76.60
38008;DHT22;75335;50.812;12.376;2024-01-15T06:17:50;-0.60;76.50
38008;DHT22;75335;50.812;12.376;2024-01-15T06:20:18;-0.50;76.30
38008;DHT22;75335;50.812;12.376;2024-01-15T06:22:47;-0.50;75.80
38008;DHT22;75335;50.812;12.376;2024-01-15T06:25:15;-0.40;75.60
38008;DHT22;75335;50.812;12.376;2024-01-15T06:27:43;-0.50;75.90
38008;DHT22;75335;50.812;12.376;2024-01-15T06:30:12;-0.50;76.20
38008;DHT22;75335;50.812;12.376;2024-01-15T06:32:40;-0.40;75.90
38008;DHT22;75335;50.812;12.376;2024-01-15T06:35:08;-0.40;75.80
38008;DHT22;75335;50.812;12.376;2024-01-15T06:37:37;-0.40;75.50
38008;DHT22;75335;50.812;12.376;2024-01-15T06:40:08;-0.40;75.80
38008;DHT22;75335;50.812;12.376;2024-01-15T06:42:42;-0.40;75.70
38008;DHT22;75335;50.812;12.376;2024-01-15T06:45:10;-0.40;75.80
38008;DHT22;75335;50.812;12.376;2024-01-15T06:47:38;-0.40;75.50
38008;DHT22;75335;50.812;12.376;2024-01-15T06:50:07;-0.30;75.60
38008;DHT22;75335;50.812;12.376;2024-01-15T06:52:35;-0.30;75.30
38008;DHT22;75335;50.812;12.376;2024-01-15T06:55:13;-0.40;75.40
38008;DHT22;75335;50.812;12.376;2024-01-15T06:57:40;-0.40;75.20
38008;DHT22;75335;50.812;12.376;2024-01-15T07:00:10;-0.40;75.50
38008;DHT22;75335;50.812;12.376;2024-01-15T07:02:38;-0.40;75.10
38008;DHT22;75335;50.812;12.376;2024-01-15T07:05:06;-0.40;75.40
38008;DHT22;75335;50.812;12.376;2024-01-15T07:07:35;-0.40;75.40
38008;DHT22;75335;50.812;12.376;2024-01-15T07:10:03;-0.50;75.00
38008;DHT22;75335;50.812;12.376;2024-01-15T07:12:34;-0.50;75.10
38008;DHT22;75335;50.812;12.376;2024-01-15T07:15:02;-0.50;75.30
38008;DHT22;75335;50.812;12.376;2024-01-15T07:17:32;-0.50;74.80
38008;DHT22;75335;50.812;12.376;2024-01-15T07:20:00;-0.50;75.00
38008;DHT22;75335;50.812;12.376;2024-01-15T07:22:29;-0.40;74.90
38008;DHT22;75335;50.812;12.376;2024-01-15T07:24:58;-0.50;74.50
38008;DHT22;75335;50.812;12.376;2024-01-15T07:27:26;-0.40;74.60
38008;DHT22;75335;50.812;12.376;2024-01-15T07:29:55;-0.40;74.30
38008;DHT22;75335;50.812;12.376;2024-01-15T07:32:23;-0.40;73.90
38008;DHT22;75335;50.812;12.376;2024-01-15T07:34:51;-0.30;73.80
38008;DHT22;75335;50.812;12.376;2024-01-15T07:37:32;-0.30;73.60
38008;DHT22;75335;50.812;12.376;2024-01-15T07:40:00;-0.30;73.50
38008;DHT22;75335;50.812;12.376;2024-01-15T07:42:30;-0.30;73.60
38008;DHT22;75335;50.812;12.376;2024-01-15T07:44:59;-0.30;73.90
38008;DHT22;75335;50.812;12.376;2024-01-15T07:47:28;-0.30;74.30
38008;DHT22;75335;50.812;12.376;2024-01-15T07:49:57;-0.30;74.10
38008;DHT22;75335;50.812;12.376;2024-01-15T07:52:25;-0.20;73.60
38008;DHT22;75335;50.812;12.376;2024-01-15T07:54:53;-0.20;73.70
38008;DHT22;75335;50.812;12.376;2024-01-15T07:57:21;-0.20;73.50
38008;DHT22;75335;50.812;12.376;2024-01-15T07:59:49;-0.20;73.40
38008;DHT22;75335;50.812;12.376;2024-01-15T08:02:19;-0.20;73.30
38008;DHT22;75335;50.812;12.376;2024-01-15T08:04:47;-0.20;73.40
38008;DHT22;75335;50.812;12.376;2024-01-15T08:07:16;-0.20;73.10
38008;DHT22;75335;50.812;12.376;2024-01-15T08:09:44;-0.30;73.10
38008;DHT22;75335;50.812;12.376;2024-01-15T08:12:13;-0.20;73.70
38008;DHT22;75335;50.812;12.376;2024-01-15T08:14:41;-0.10;73.20
38008;DHT22;75335;50.812;12.376;2024-01-15T08:17:11;-0.20;73.00
38008;DHT22;75335;50.812;12.376;2024-01-15T08:19:40;-0.20;73.20
38008;DHT22;75335;50.812;12.376;2024-01-15T08:22:08;-0.20;73.30
38008;DHT22;75335;50.812;12.376;2024-01-15T08:24:36;-0.10;73.60
38008;DHT22;75335;50.812;12.376;2024-01-15T08:27:04;-0.20;72.80
38008;DHT22;75335;50.812;12.376;2024-01-15T08:29:32;-0.10;72.70
38008;DHT22;75335;50.812;12.376;2024-01-15T08:32:01;-0.10;72.30
38008;DHT22;75335;50.812;12.376;2024-01-15T08:34:29;-0.10;72.80
38008;DHT22;75335;50.812;12.376;2024-01-15T08:36:59;-0.10;72.30
38008;DHT22;75335;50.812;12.376;2024-01-15T08:39:27;-0.10;72.00
38008;DHT22;75335;50.812;12.376;2024-01-15T08:41:55;-0.10;71.90
38008;DHT22;75335;50.812;12.376;2024-01-15T08:44:24;0.00;71.70
38008;DHT22;75335;50.812;12.376;2024-01-15T08:46:51;0.10;71.80
38008;DHT22;75335;50.812;12.376;2024-01-15T08:49:20;-0.10;71.60
38008;DHT22;75335;50.812;12.376;2024-01-15T08:51:48;0.00;72.10
38008;DHT22;75335;50.812;12.376;2024-01-15T08:54:17;0.00;71.40
38008;DHT22;75335;50.812;12.376;2024-01-15T08:56:45;0.00;71.50
38008;DHT22;75335;50.812;12.376;2024-01-15T08:59:15;0.00;71.40
38008;DHT22;75335;50.812;12.376;2024-01-15T09:01:50;0.10;71.50
38008;DHT22;75335;50.812;12.376;2024-01-15T09:04:18;0.10;71.50
38008;DHT22;75335;50.812;12.376;2024-01-15T09:07:01;0.10;71.80
38008;DHT22;75335;50.812;12.376;2024-01-15T09:09:30;0.10;71.40
38008;DHT22;75335;50.812;12.376;2024-01-15T09:11:59;0.10;71.30
38008;DHT22;75335;50.812;12.376;2024-01-15T09:14:27;0.20;71.40
38008;DHT22;75335;50.812;12.376;2024-01-15T09:16:55;0.20;71.00
38008;DHT22;75335;50.812;12.376;2024-01-15T09:19:23;0.30;71.20
38008;DHT22;75335;50.812;12.376;2024-01-15T09:21:51;0.20;71.20
38008;DHT22;75335;50.812;12.376;2024-01-15T09:24:19;0.30;71.00
38008;DHT22;75335;50.812;12.376;2024-01-15T09:26:51;0.30;71.10
38008;DHT22;75335;50.812;12.376;2024-01-15T09:29:19;0.20;71.00
38008;DHT22;75335;50.812;12.376;2024-01-15T09:31:47;0.20;71.10
38008;DHT22;75335;50.812;12.376;2024-01-15T09:34:16;0.20;71.50
38008;DHT22;75335;50.812;12.376;2024-01-15T09:36:44;0.30;71.00
38008;DHT22;75335;50.812;12.376;2024-01-15T09:39:16;0.30;70.80
38008;DHT22;75335;50.812;12.376;2024-01-15T09:41:44;0.40;70.70
38008;DHT22;75335;50.812;12.376;2024-01-15T09:44:16;0.40;70.40
38008;DHT22;75335;50.812;12.376;2024-01-15T09:46:45;0.60;70.50
38008;DHT22;75335;50.812;12.376;2024-01-15T09:49:16;0.60;70.50
38008;DHT22;75335;50.812;12.376;2024-01-15T09:51:46;0.60;70.20
38008;DHT22;75335;50.812;12.376;2024-01-15T09:54:17;0.60;70.60
38008;DHT22;75335;50.812;12.376;2024-01-15T09:56:46;0.80;69.30
38008;DHT22;75335;50.812;12.376;2024-01-15T09:59:18;0.80;68.90
38008;DHT22;75335;50.812;12.376;2024-01-15T10:01:46;0.70;70.10
38008;DHT22;75335;50.812;12.376;2024-01-15T10:04:15;0.80;69.10
38008;DHT22;75335;50.812;12.376;2024-01-15T10:06:51;0.90;68.80
38008;DHT22;75335;50.812;12.376;2024-01-15T10:09:19;0.90;68.80
38008;DHT22;75335;50.812;12.376;2024-01-15T10:11:48;0.90;69.00
38008;DHT22;75335;50.812;12.376;2024-01-15T10:14:17;0.70;69.70
38008;DHT22;75335;50.812;12.376;2024-01-15T10:16:45;1.00;68.00
38008;DHT22;75335;50.812;12.376;2024-01-15T10:19:13;1.30;67.30
38008;DHT22;75335;50.812;12.376;2024-01-15T10:21:42;1.40;67.50
38008;DHT22;75335;50.812;12.376;2024-01-15T10:24:09;1.30;67.60
38008;DHT22;75335;50.812;12.376;2024-01-15T10:26:37;1.20;66.90
38008;DHT22;75335;50.812;12.376;2024-01-15T10:29:05;1.20;67.60
38008;DHT22;75335;50.812;12.376;2024-01-15T10:31:35;1.20;67.00
38008;DHT22;75335;50.812;12.376;2024-01-15T10:34:14;1.30;66.30
38008;DHT22;75335;50.812;12.376;2024-01-15T10:36:45;1.30;66.80
38008;DHT22;75335;50.812;12.376;2024-01-15T10:39:18;1.40;66.20
38008;DHT22;75335;50.812;12.376;2024-01-15T10:41:47;1.30;66.60
38008;DHT22;75335;50.812;12.376;2024-01-15T10:44:19;1.20;66.90
38008;DHT22;75335;50.812;12.376;2024-01-15T10:46:49;1.20;67.30
38008;DHT22;75335;50.812;12.376;2024-01-15T10:49:19;1.40;67.00
38008;DHT22;75335;50.812;12.376;2024-01-15T10:51:47;1.80;65.00
38008;DHT22;75335;50.812;12.376;2024-01-15T10:54:19;1.90;64.60
38008;DHT22;75335;50.812;12.376;2024-01-15T10:56:50;1.90;64.60
38008;DHT22;75335;50.812;12.376;2024-01-15T10:59:20;2.00;63.90
38008;DHT22;75335;50.812;12.376;2024-01-15T11:01:51;2.30;63.30
38008;DHT22;75335;50.812;12.376;2024-01-15T11:04:20;2.90;61.90
38008;DHT22;75335;50.812;12.376;2024-01-15T11:06:51;3.00;59.60
38008;DHT22;75335;50.812;12.376;2024-01-15T11:09:20;3.50;58.70
38008;DHT22;75335;50.812;12.376;2024-01-15T11:11:52;3.80;57.90
38008;DHT22;75335;50.812;12.376;2024-01-15T11:14:35;3.60;58.20
38008;DHT22;75335;50.812;12.376;2024-01-15T11:17:08;3.10;59.40
38008;DHT22;75335;50.812;12.376;2024-01-15T11:19:37;2.70;61.00
38008;DHT22;75335;50.812;12.376;2024-01-15T11:22:08;2.60;60.90
38008;DHT22;75335;50.812;12.376;2024-01-15T11:24:38;2.90;59.90
38008;DHT22;75335;50.812;12.376;2024-01-15T11:27:08;3.40;58.20
38008;DHT22;75335;50.812;12.376;2024-01-15T11:29:37;3.50;57.80
38008;DHT22;75335;50.812;12.376;2024-01-15T11:32:08;3.50;57.40
38008;DHT22;75335;50.812;12.376;2024-01-15T11:34:55;3.40;57.90
38008;DHT22;75335;50.812;12.376;2024-01-15T11:37:29;3.20;58.80
38008;DHT22;75335;50.812;12.376;2024-01-15T11:40:18;2.90;59.80
38008;DHT22;75335;50.812;12.376;2024-01-15T11:42:48;2.40;61.40
38008;DHT22;75335;50.812;12.376;2024-01-15T11:45:19;2.40;61.80
38008;DHT22;75335;50.812;12.376;2024-01-15T11:50:50;2.60;61.20
38008;DHT22;75335;50.812;12.376;2024-01-15T11:53:32;3.00;61.40
38008;DHT22;75335;50.812;12.376;2024-01-15T11:56:10;2.60;62.00
38008;DHT22;75335;50.812;12.376;2024-01-15T11:58:42;2.30;62.80
38008;DHT22;75335;50.812;12.376;2024-01-15T12:01:11;2.50;62.90
38008;DHT22;75335;50.812;12.376;2024-01-15T12:03:41;2.30;63.40
38008;DHT22;75335;50.812;12.376;2024-01-15T12:06:09;2.20;64.00
38008;DHT22;75335;50.812;12.376;2024-01-15T12:08:38;2.00;64.40
38008;DHT22;75335;50.812;12.376;2024-01-15T12:11:07;2.00;64.00
38008;DHT22;75335;50.812;12.376;2024-01-15T12:14:00;1.80;63.50
38008;DHT22;75335;50.812;12.376;2024-01-15T12:16:28;2.00;64.20
38008;DHT22;75335;50.812;12.376;2024-01-15T12:18:58;1.90;63.50
38008;DHT22;75335;50.812;12.376;2024-01-15T12:21:27;1.80;64.00
38008;DHT22;75335;50.812;12.376;2024-01-15T12:23:56;1.80;64.10
38008;DHT22;75335;50.812;12.376;2024-01-15T12:26:24;1.90;63.70
38008;DHT22;75335;50.812;12.376;2024-01-15T12:29:01;1.90;63.50
38008;DHT22;75335;50.812;12.376;2024-01-15T12:31:30;1.90;64.00
38008;DHT22;75335;50.812;12.376;2024-01-15T12:34:01;2.00;64.60
38008;DHT22;75335;50.812;12.376;2024-01-15T12:36:30;2.20;63.70
38008;DHT22;75335;50.812;12.376;2024-01-15T12:38:59;2.50;61.60
38008;DHT22;75335;50.812;12.376;2024-01-15T12:41:29;2.30;62.30
38008;DHT22;75335;50.812;12.376;2024-01-15T12:43:58;2.30;62.90
38008;DHT22;75335;50.812;12.376;2024-01-15T12:46:26;2.40;63.70
38008;DHT22;75335;50.812;12.376;2024-01-15T12:48:56;2.20;63.00
38008;DHT22;75335;50.812;12.376;2024-01-15T12:51:27;2.20;63.80
38008;DHT22;75335;50.812;12.376;2024-01-15T12:53:55;2.30;63.60
38008;DHT22;75335;50.812;12.376;2024-01-15T12:56:23;2.10;63.80
38008;DHT22;75335;50.812;12.376;2024-01-15T12:58:51;2.10;64.20
38008;DHT22;75335;50.812;12.376;2024-01-15T13:01:19;2.10;63.90
38008;DHT22;75335;50.812;12.376;2024-01-15T13:03:47;2.00;64.90
38008;DHT22;75335;50.812;12.376;2024-01-15T13:06:15;2.00;65.10
38008;DHT22;75335;50.812;12.376;2024-01-15T13:08:46;2.00;65.20
38008;DHT22;75335;50.812;12.376;2024-01-15T13:11:14;1.90;65.20
38008;DHT22;75335;50.812;12.376;2024-01-15T13:13:43;2.00;65.40
38008;DHT22;75335;50.812;12.376;2024-01-15T13:16:11;2.00;65.90
38008;DHT22;75335;50.812;12.376;2024-01-15T13:18:39;1.80;65.80
38008;DHT22;75335;50.812;12.376;2024-01-15T13:21:15;1.90;65.00
38008;DHT22;75335;50.812;12.376;2024-01-15T13:23:42;1.90;65.90
38008;DHT22;75335;50.812;12.376;2024-01-15T13:26:12;2.00;65.90
38008;DHT22;75335;50.812;12.376;2024-01-15T13:28:40;2.00;65.60
38008;DHT22;75335;50.812;12.376;2024-01-15T13:31:08;1.90;66.30
38008;DHT22;75335;50.812;12.376;2024-01-15T13:33:36;1.90;66.70
38008;DHT22;75335;50.812;12.376;2024-01-15T13:36:04;1.80;66.50
38008;DHT22;75335;50.812;12.376;2024-01-15T13:38:36;1.80;65.80
38008;DHT22;75335;50.812;12.376;2024-01-15T13:41:06;1.90;66.20
38008;DHT22;75335;50.812;12.376;2024-01-15T13:43:34;1.80;66.60
38008;DHT22;75335;50.812;12.376;2024-01-15T13:46:02;1.80;66.30
38008;DHT22;75335;50.812;12.376;2024-01-15T13:48:31;1.80;66.80
38008;DHT22;75335;50.812;12.376;2024-01-15T13:50:59;1.70;68.20
38008;DHT22;75335;50.812;12.376;2024-01-15T13:53:26;1.60;69.10
38008;DHT22;75335;50.812;12.376;2024-01-15T13:55:56;1.50;69.50
38008;DHT22;75335;50.812;12.376;2024-01-15T13:58:26;1.60;69.70
38008;DHT22;75335;50.812;12.376;2024-01-15T14:00:54;1.50;70.00
38008;DHT22;75335;50.812;12.376;2024-01-15T14:03:22;1.50;70.00
38008;DHT22;75335;50.812;12.376;2024-01-15T14:05:51;1.50;70.50
38008;DHT22;75335;50.812;12.376;2024-01-15T14:08:22;1.50;70.10
38008;DHT22;75335;50.812;12.376;2024-01-15T14:10:50;1.50;70.50
38008;DHT22;75335;50.812;12.376;2024-01-15T14:13:18;1.40;70.70
38008;DHT22;75335;50.812;12.376;2024-01-15T14:15:47;1.50;70.00
38008;DHT22;75335;50.812;12.376;2024-01-15T14:18:16;1.50;70.30
38008;DHT22;75335;50.812;12.376;2024-01-15T14:20:45;1.50;70.30
38008;DHT22;75335;50.812;12.376;2024-01-15T14:23:13;1.50;70.20
38008;DHT22;75335;50.812;12.376;2024-01-15T14:25:41;1.40;70.50
38008;DHT22;75335;50.812;12.376;2024-01-15T14:28:09;1.50;71.20
38008;DHT22;75335;50.812;12.376;2024-01-15T14:30:36;1.60;71.40
38008;DHT22;75335;50.812;12.376;2024-01-15T14:33:06;1.50;71.20
38008;DHT22;75335;50.812;12.376;2024-01-15T14:35:34;1.40;71.90
38008;DHT22;75335;50.812;12.376;2024-01-15T14:38:02;1.40;72.40
38008;DHT22;75335;50.812;12.376;2024-01-15T14:40:30;1.50;72.00
38008;DHT22;75335;50.812;12.376;2024-01-15T14:42:58;1.50;71.80
38008;DHT22;75335;50.812;12.376;2024-01-15T14:45:27;1.40;71.10
38008;DHT22;75335;50.812;12.376;2024-01-15T14:47:59;1.40;71.30
38008;DHT22;75335;50.812;12.376;2024-01-15T14:50:31;1.30;71.30
38008;DHT22;75335;50.812;12.376;2024-01-15T14:52:59;1.30;71.40
38008;DHT22;75335;50.812;12.376;2024-01-15T14:55:27;1.40;72.60
38008;DHT22;75335;50.812;12.376;2024-01-15T14:57:55;1.20;74.80
38008;DHT22;75335;50.812;12.376;2024-01-15T15:00:23;0.90;79.30
38008;DHT22;75335;50.812;12.376;2024-01-15T15:02:52;0.90;79.70
38008;DHT22;75335;50.812;12.376;2024-01-15T15:05:20;1.00;77.80
38008;DHT22;75335;50.812;12.376;2024-01-15T15:07:49;1.00;78.00
38008;DHT22;75335;50.812;12.376;2024-01-15T15:10:17;1.00;77.10
38008;DHT22;75335;50.812;12.376;2024-01-15T15:12:45;0.90;78.00
38008;DHT22;75335;50.812;12.376;2024-01-15T15:15:13;0.90;77.90
38008;DHT22;75335;50.812;12.376;2024-01-15T15:17:44;1.00;78.00
38008;DHT22;75335;50.812;12.376;2024-01-15T15:20:12;1.00;77.90
38008;DHT22;75335;50.812;12.376;2024-01-15T15:22:40;0.90;77.70
38008;DHT22;75335;50.812;12.376;2024-01-15T15:25:10;0.80;78.40
38008;DHT22;75335;50.812;12.376;2024-01-15T15:27:38;0.90;78.40
38008;DHT22;75335;50.812;12.376;2024-01-15T15:30:07;0.90;78.70
38008;DHT22;75335;50.812;12.376;2024-01-15T15:32:43;0.90;78.50
38008;DHT22;75335;50.812;12.376;2024-01-15T15:35:11;0.90;78.70
38008;DHT22;75335;50.812;12.376;2024-01-15T15:37:40;0.90;79.00
38008;DHT22;75335;50.812;12.376;2024-01-15T15:40:10;1.00;78.80